createdAt,value
2016-05-05T00:00:01.367Z,10.7
2016-05-05T00:00:11.367Z,10.7
2016-05-05T00:00:21.226Z,10.7
2016-05-05T00:00:31.367Z,10.6
2016-05-05T00:00:41.367Z,10.7
2016-05-05T00:00:51.367Z,10.7
2016-05-05T00:01:01.386Z,10.6
2016-05-05T00:01:11.370Z,10.7
2016-05-05T00:01:21.386Z,10.8
2016-05-05T00:01:31.386Z,10.7
2016-05-05T00:01:41.401Z,10.7
2016-05-05T00:01:51.386Z,10.7
2016-05-05T00:02:01.389Z,10.7
2016-05-05T00:02:11.389Z,10.7
2016-05-05T00:02:21.404Z,10.7
2016-05-05T00:02:31.404Z,10.7
2016-05-05T00:02:41.404Z,10.6
2016-05-05T00:02:51.404Z,10.7
2016-05-05T00:03:01.250Z,10.7
2016-05-05T00:03:11.266Z,10.7
2016-05-05T00:03:21.406Z,10.7
2016-05-05T00:03:31.406Z,10.7
2016-05-05T00:03:41.406Z,10.7
2016-05-05T00:03:51.406Z,10.7
2016-05-05T00:04:01.409Z,10.7
2016-05-05T00:04:11.409Z,10.7
2016-05-05T00:04:21.409Z,10.7
2016-05-05T00:04:31.409Z,10.6
2016-05-05T00:04:41.409Z,10.7
2016-05-05T00:04:51.269Z,10.7
2016-05-05T00:05:01.427Z,10.6
2016-05-05T00:05:11.427Z,10.7
2016-05-05T00:05:21.427Z,10.7
2016-05-05T00:05:31.427Z,10.7
2016-05-05T00:05:41.427Z,10.7
2016-05-05T00:05:51.427Z,10.7
2016-05-05T00:06:01.289Z,10.7
2016-05-05T00:06:11.289Z,10.6
2016-05-05T00:06:21.430Z,10.7
2016-05-05T00:06:31.430Z,10.7
2016-05-05T00:06:41.445Z,10.7
2016-05-05T00:06:51.289Z,10.7
2016-05-05T00:07:01.448Z,10.7
2016-05-05T00:07:11.308Z,10.7
2016-05-05T00:07:21.448Z,10.7
2016-05-05T00:07:31.308Z,10.7
2016-05-05T00:07:41.323Z,10.7
2016-05-05T00:07:51.464Z,10.7
2016-05-05T00:08:01.466Z,10.7
2016-05-05T00:08:11.466Z,10.7
2016-05-05T00:08:21.466Z,10.6
2016-05-05T00:08:31.466Z,10.7
2016-05-05T00:08:41.466Z,10.7
2016-05-05T00:08:51.482Z,10.7
2016-05-05T00:09:01.329Z,10.7
2016-05-05T00:09:11.329Z,10.6
2016-05-05T00:09:21.329Z,10.7
2016-05-05T00:09:31.345Z,10.7
2016-05-05T00:09:41.501Z,10.7
2016-05-05T00:09:51.345Z,10.7
2016-05-05T00:10:01.488Z,10.7
2016-05-05T00:10:11.488Z,10.7
2016-05-05T00:10:21.488Z,10.7
2016-05-05T00:10:31.488Z,10.7
2016-05-05T00:10:41.488Z,10.7
2016-05-05T00:10:51.488Z,10.7
2016-05-05T00:11:01.491Z,10.7
2016-05-05T00:11:11.491Z,10.7
2016-05-05T00:11:21.491Z,10.7
2016-05-05T00:11:31.506Z,10.7
2016-05-05T00:11:41.506Z,10.6
2016-05-05T00:11:51.506Z,10.7
2016-05-05T00:12:01.508Z,10.7
2016-05-05T00:12:11.508Z,10.7
2016-05-05T00:12:21.508Z,10.7
2016-05-05T00:12:31.524Z,10.7
2016-05-05T00:12:41.508Z,10.7
2016-05-05T00:12:51.524Z,10.7
2016-05-05T00:13:01.527Z,10.6
2016-05-05T00:13:11.527Z,10.7
2016-05-05T00:13:21.527Z,10.7
2016-05-05T00:13:31.527Z,10.7
2016-05-05T00:13:41.527Z,10.7
2016-05-05T00:13:51.527Z,10.7
2016-05-05T00:14:01.530Z,10.6
2016-05-05T00:14:11.530Z,10.7
2016-05-05T00:14:21.546Z,10.6
2016-05-05T00:14:31.389Z,10.6
2016-05-05T00:14:41.546Z,10.7
2016-05-05T00:14:51.546Z,10.7
2016-05-05T00:15:01.548Z,10.8
2016-05-05T00:15:11.548Z,10.7
2016-05-05T00:15:21.548Z,10.7
2016-05-05T00:15:31.548Z,10.7
2016-05-05T00:15:41.548Z,10.7
2016-05-05T00:15:51.563Z,10.7
2016-05-05T00:16:01.551Z,10.7
2016-05-05T00:16:11.551Z,10.7
2016-05-05T00:16:21.551Z,10.7
2016-05-05T00:16:31.566Z,10.7
2016-05-05T00:16:41.410Z,10.7
2016-05-05T00:16:51.566Z,10.7
2016-05-05T00:17:01.568Z,10.7
2016-05-05T00:17:11.568Z,10.6
2016-05-05T00:17:21.584Z,10.7
2016-05-05T00:17:31.568Z,10.7
2016-05-05T00:17:41.568Z,10.7
2016-05-05T00:17:51.568Z,10.7
2016-05-05T00:18:01.588Z,10.7
2016-05-05T00:18:11.588Z,10.7
2016-05-05T00:18:21.588Z,10.7
2016-05-05T00:18:31.588Z,10.6
2016-05-05T00:18:41.588Z,10.7
2016-05-05T00:18:51.588Z,10.6
2016-05-05T00:19:01.590Z,10.7
2016-05-05T00:19:11.590Z,10.8
2016-05-05T00:19:21.590Z,10.6
2016-05-05T00:19:31.590Z,10.7
2016-05-05T00:19:41.605Z,10.7
2016-05-05T00:19:51.621Z,10.7
2016-05-05T00:20:01.608Z,10.6
2016-05-05T00:20:11.608Z,10.7
2016-05-05T00:20:21.452Z,10.7
2016-05-05T00:20:31.608Z,10.7
2016-05-05T00:20:41.608Z,10.7
2016-05-05T00:20:51.608Z,10.6
2016-05-05T00:21:01.627Z,10.6
2016-05-05T00:21:11.627Z,10.6
2016-05-05T00:21:21.627Z,10.7
2016-05-05T00:21:31.611Z,10.7
2016-05-05T00:21:41.611Z,10.7
2016-05-05T00:21:51.471Z,10.6
2016-05-05T00:22:01.629Z,10.6
2016-05-05T00:22:11.629Z,10.6
2016-05-05T00:22:21.629Z,10.6
2016-05-05T00:22:31.629Z,10.7
2016-05-05T00:22:41.629Z,10.6
2016-05-05T00:22:51.488Z,10.6
2016-05-05T00:23:01.632Z,10.6
2016-05-05T00:23:11.648Z,10.6
2016-05-05T00:23:21.632Z,10.7
2016-05-05T00:23:31.648Z,10.6
2016-05-05T00:23:41.648Z,10.6
2016-05-05T00:23:51.648Z,10.7
2016-05-05T00:24:01.651Z,10.6
2016-05-05T00:24:11.885Z,10.6
2016-05-05T00:24:21.682Z,10.6
2016-05-05T00:24:31.651Z,10.6
2016-05-05T00:24:41.651Z,10.6
2016-05-05T00:24:51.682Z,10.7
2016-05-05T00:25:01.496Z,10.6
2016-05-05T00:25:11.668Z,10.6
2016-05-05T00:25:21.684Z,10.6
2016-05-05T00:25:31.668Z,10.6
2016-05-05T00:25:41.668Z,10.6
2016-05-05T00:25:51.668Z,10.6
2016-05-05T00:26:01.671Z,10.5
2016-05-05T00:26:11.671Z,10.6
2016-05-05T00:26:21.531Z,10.7
2016-05-05T00:26:31.687Z,10.6
2016-05-05T00:26:41.671Z,10.6
2016-05-05T00:26:51.687Z,10.6
2016-05-05T00:27:01.690Z,10.6
2016-05-05T00:27:11.690Z,10.6
2016-05-05T00:27:21.534Z,10.6
2016-05-05T00:27:31.690Z,10.6
2016-05-05T00:27:41.690Z,10.6
2016-05-05T00:27:51.690Z,10.6
2016-05-05T00:28:01.692Z,10.6
2016-05-05T00:28:11.692Z,10.6
2016-05-05T00:28:21.708Z,10.5
2016-05-05T00:28:31.708Z,10.6
2016-05-05T00:28:41.708Z,10.5
2016-05-05T00:28:51.708Z,10.6
2016-05-05T00:29:01.554Z,10.5
2016-05-05T00:29:11.711Z,10.6
2016-05-05T00:29:21.711Z,10.6
2016-05-05T00:29:31.711Z,10.5
2016-05-05T00:29:41.726Z,10.5
2016-05-05T00:29:51.570Z,10.5
2016-05-05T00:30:01.728Z,10.5
2016-05-05T00:30:11.728Z,10.5
2016-05-05T00:30:21.728Z,10.6
2016-05-05T00:30:31.728Z,10.6
2016-05-05T00:30:41.728Z,10.6
2016-05-05T00:30:51.572Z,10.5
2016-05-05T00:31:01.732Z,10.6
2016-05-05T00:31:11.732Z,10.6
2016-05-05T00:31:21.576Z,10.5
2016-05-05T00:31:31.748Z,10.6
2016-05-05T00:31:41.748Z,10.6
2016-05-05T00:31:51.732Z,10.6
2016-05-05T00:32:01.750Z,10.6
2016-05-05T00:32:11.750Z,10.5
2016-05-05T00:32:21.594Z,10.5
2016-05-05T00:32:31.750Z,10.5
2016-05-05T00:32:41.594Z,10.5
2016-05-05T00:32:51.765Z,10.5
2016-05-05T00:33:01.767Z,10.5
2016-05-05T00:33:11.752Z,10.6
2016-05-05T00:33:21.752Z,10.5
2016-05-05T00:33:31.767Z,10.5
2016-05-05T00:33:41.767Z,10.6
2016-05-05T00:33:51.767Z,10.5
2016-05-05T00:34:01.771Z,10.6
2016-05-05T00:34:11.771Z,10.6
2016-05-05T00:34:21.615Z,10.6
2016-05-05T00:34:31.771Z,10.5
2016-05-05T00:34:41.771Z,10.5
2016-05-05T00:34:51.771Z,10.5
2016-05-05T00:35:01.633Z,10.5
2016-05-05T00:35:11.633Z,10.5
2016-05-05T00:35:21.789Z,10.5
2016-05-05T00:35:31.805Z,10.5
2016-05-05T00:35:41.633Z,10.6
2016-05-05T00:35:51.789Z,10.4
2016-05-05T00:36:01.792Z,10.5
2016-05-05T00:36:11.792Z,10.5
2016-05-05T00:36:21.792Z,10.5
2016-05-05T00:36:31.808Z,10.5
2016-05-05T00:36:41.792Z,10.5
2016-05-05T00:36:51.792Z,10.5
2016-05-05T00:37:01.811Z,10.5
2016-05-05T00:37:11.811Z,10.5
2016-05-05T00:37:21.654Z,10.5
2016-05-05T00:37:31.811Z,10.5
2016-05-05T00:37:41.811Z,10.5
2016-05-05T00:37:51.811Z,10.5
2016-05-05T00:38:01.813Z,10.5
2016-05-05T00:38:11.828Z,10.5
2016-05-05T00:38:21.813Z,10.5
2016-05-05T00:38:31.813Z,10.5
2016-05-05T00:38:41.828Z,10.5
2016-05-05T00:38:51.828Z,10.5
2016-05-05T00:39:02.206Z,10.5
2016-05-05T00:39:11.691Z,10.5
2016-05-05T00:39:22.019Z,10.4
2016-05-05T00:39:32.050Z,10.5
2016-05-05T00:39:42.175Z,10.5
2016-05-05T00:39:52.034Z,10.5
2016-05-05T00:40:01.833Z,10.4
2016-05-05T00:40:11.833Z,10.5
2016-05-05T00:40:21.849Z,10.5
2016-05-05T00:40:31.849Z,10.5
2016-05-05T00:40:41.849Z,10.4
2016-05-05T00:40:51.693Z,10.5
2016-05-05T00:41:01.852Z,10.5
2016-05-05T00:41:11.852Z,10.4
2016-05-05T00:41:21.852Z,10.4
2016-05-05T00:41:31.696Z,10.4
2016-05-05T00:41:41.868Z,10.4
2016-05-05T00:41:51.852Z,10.4
2016-05-05T00:42:01.714Z,10.4
2016-05-05T00:42:11.871Z,10.4
2016-05-05T00:42:21.871Z,10.4
2016-05-05T00:42:31.871Z,10.4
2016-05-05T00:42:41.871Z,10.5
2016-05-05T00:42:51.871Z,10.4
2016-05-05T00:43:01.717Z,10.4
2016-05-05T00:43:11.733Z,10.4
2016-05-05T00:43:21.717Z,10.4
2016-05-05T00:43:31.874Z,10.4
2016-05-05T00:43:41.733Z,10.4
2016-05-05T00:43:51.874Z,10.5
2016-05-05T00:44:01.735Z,10.5
2016-05-05T00:44:11.891Z,10.5
2016-05-05T00:44:21.891Z,10.4
2016-05-05T00:44:31.891Z,10.5
2016-05-05T00:44:41.891Z,10.4
2016-05-05T00:44:51.891Z,10.4
2016-05-05T00:45:01.894Z,10.4
2016-05-05T00:45:11.894Z,10.4
2016-05-05T00:45:21.910Z,10.4
2016-05-05T00:45:31.894Z,10.5
2016-05-05T00:45:41.910Z,10.4
2016-05-05T00:45:51.910Z,10.4
2016-05-05T00:46:01.912Z,10.4
2016-05-05T00:46:11.912Z,10.4
2016-05-05T00:46:21.912Z,10.4
2016-05-05T00:46:31.912Z,10.3
2016-05-05T00:46:41.912Z,10.4
2016-05-05T00:46:51.927Z,10.4
2016-05-05T00:47:01.916Z,10.4
2016-05-05T00:47:11.931Z,10.4
2016-05-05T00:47:21.931Z,10.3
2016-05-05T00:47:31.931Z,10.4
2016-05-05T00:47:41.931Z,10.4
2016-05-05T00:47:51.791Z,10.4
2016-05-05T00:48:01.933Z,10.4
2016-05-05T00:48:11.949Z,10.4
2016-05-05T00:48:21.933Z,10.3
2016-05-05T00:48:31.949Z,10.3
2016-05-05T00:48:41.793Z,10.3
2016-05-05T00:48:51.933Z,10.3
2016-05-05T00:49:01.952Z,10.4
2016-05-05T00:49:11.936Z,10.4
2016-05-05T00:49:21.936Z,10.3
2016-05-05T00:49:31.796Z,10.3
2016-05-05T00:49:41.952Z,10.3
2016-05-05T00:49:51.952Z,10.3
2016-05-05T00:50:01.798Z,10.3
2016-05-05T00:50:11.954Z,10.3
2016-05-05T00:50:21.970Z,10.2
2016-05-05T00:50:31.954Z,10.3
2016-05-05T00:50:41.970Z,10.3
2016-05-05T00:50:51.954Z,10.3
2016-05-05T00:51:01.958Z,10.3
2016-05-05T00:51:11.974Z,10.3
2016-05-05T00:51:21.974Z,10.3
2016-05-05T00:51:31.974Z,10.3
2016-05-05T00:51:41.974Z,10.3
2016-05-05T00:51:51.817Z,10.3
2016-05-05T00:52:01.976Z,10.3
2016-05-05T00:52:11.835Z,10.3
2016-05-05T00:52:21.976Z,10.3
2016-05-05T00:52:31.976Z,10.2
2016-05-05T00:52:41.991Z,10.3
2016-05-05T00:52:51.991Z,10.3
2016-05-05T00:53:01.994Z,10.3
2016-05-05T00:53:11.994Z,10.3
2016-05-05T00:53:22.010Z,10.2
2016-05-05T00:53:31.994Z,10.3
2016-05-05T00:53:42.010Z,10.2
2016-05-05T00:53:51.994Z,10.3
2016-05-05T00:54:01.856Z,10.2
2016-05-05T00:54:12.012Z,10.3
2016-05-05T00:54:22.731Z,10.3
2016-05-05T00:54:32.528Z,10.3
2016-05-05T00:54:42.012Z,10.2
2016-05-05T00:54:52.012Z,10.2
2016-05-05T00:55:02.015Z,10.2
2016-05-05T00:55:12.015Z,10.2
2016-05-05T00:55:22.015Z,10.1
2016-05-05T00:55:32.015Z,10.2
2016-05-05T00:55:42.031Z,10.2
2016-05-05T00:55:52.015Z,10.2
2016-05-05T00:56:02.018Z,10.1
2016-05-05T00:56:11.877Z,10.2
2016-05-05T00:56:22.034Z,10.2
2016-05-05T00:56:32.034Z,10.1
2016-05-05T00:56:42.034Z,10.1
2016-05-05T00:56:52.034Z,10.2
2016-05-05T00:57:02.052Z,10.1
2016-05-05T00:57:12.037Z,10.1
2016-05-05T00:57:22.052Z,10.1
2016-05-05T00:57:32.037Z,10
2016-05-05T00:57:42.037Z,10.1
2016-05-05T00:57:52.052Z,10.1
2016-05-05T00:58:02.040Z,10.1
2016-05-05T00:58:12.055Z,10.1
2016-05-05T00:58:22.055Z,10.1
2016-05-05T00:58:32.055Z,10.1
2016-05-05T00:58:42.055Z,10.1
2016-05-05T00:58:52.055Z,10.2
2016-05-05T00:59:02.073Z,10.2
2016-05-05T00:59:12.057Z,10.1
2016-05-05T00:59:22.057Z,10.2
2016-05-05T00:59:32.057Z,10.1
2016-05-05T00:59:42.073Z,10.1
2016-05-05T00:59:52.057Z,10.1
2016-05-05T01:00:02.075Z,10.1
2016-05-05T01:00:12.075Z,10
2016-05-05T01:00:22.075Z,10.1
2016-05-05T01:00:32.075Z,10.1
2016-05-05T01:00:42.075Z,10.1
2016-05-05T01:00:52.090Z,10.1
2016-05-05T01:01:02.078Z,10.1
2016-05-05T01:01:12.093Z,10.1
2016-05-05T01:01:22.078Z,10
2016-05-05T01:01:32.093Z,10.1
2016-05-05T01:01:42.093Z,10
2016-05-05T01:01:52.093Z,10.1
2016-05-05T01:02:02.096Z,9.9
2016-05-05T01:02:12.096Z,10
2016-05-05T01:02:22.096Z,10
2016-05-05T01:02:32.112Z,9.9
2016-05-05T01:02:42.096Z,10
2016-05-05T01:02:52.096Z,10
2016-05-05T01:03:02.098Z,10
2016-05-05T01:03:12.130Z,10
2016-05-05T01:03:22.114Z,9.9
2016-05-05T01:03:32.114Z,9.9
2016-05-05T01:03:42.130Z,9.9
2016-05-05T01:03:52.114Z,9.9
2016-05-05T01:04:01.976Z,9.9
2016-05-05T01:04:12.117Z,9.9
2016-05-05T01:04:22.117Z,9.8
2016-05-05T01:04:32.117Z,9.8
2016-05-05T01:04:42.117Z,9.9
2016-05-05T01:04:52.133Z,9.8
2016-05-05T01:05:02.136Z,9.9
2016-05-05T01:05:12.136Z,9.9
2016-05-05T01:05:21.979Z,9.8
2016-05-05T01:05:32.136Z,9.9
2016-05-05T01:05:42.136Z,9.9
2016-05-05T01:05:52.136Z,9.8
2016-05-05T01:06:02.139Z,9.7
2016-05-05T01:06:12.139Z,9.8
2016-05-05T01:06:22.139Z,9.8
2016-05-05T01:06:32.154Z,9.8
2016-05-05T01:06:42.154Z,9.8
2016-05-05T01:06:51.998Z,9.7
2016-05-05T01:07:02.156Z,9.8
2016-05-05T01:07:12.172Z,9.8
2016-05-05T01:07:22.156Z,9.7
2016-05-05T01:07:32.156Z,9.7
2016-05-05T01:07:42.156Z,9.7
2016-05-05T01:07:52.156Z,9.8
2016-05-05T01:08:02.175Z,9.7
2016-05-05T01:08:12.175Z,9.7
2016-05-05T01:08:22.159Z,9.7
2016-05-05T01:08:32.175Z,9.7
2016-05-05T01:08:42.175Z,9.7
2016-05-05T01:08:52.175Z,9.7
2016-05-05T01:09:03.536Z,9.7
2016-05-05T01:09:12.193Z,9.7
2016-05-05T01:09:22.396Z,9.7
2016-05-05T01:09:32.193Z,9.7
2016-05-05T01:09:42.193Z,9.7
2016-05-05T01:09:52.177Z,9.7
2016-05-05T01:10:02.180Z,9.7
2016-05-05T01:10:12.196Z,9.7
2016-05-05T01:10:22.196Z,9.7
2016-05-05T01:10:32.196Z,9.6
2016-05-05T01:10:42.196Z,9.6
2016-05-05T01:10:52.196Z,9.6
2016-05-05T01:11:02.199Z,9.6
2016-05-05T01:11:12.199Z,9.6
2016-05-05T01:11:22.199Z,9.6
2016-05-05T01:11:32.214Z,9.6
2016-05-05T01:11:42.199Z,9.5
2016-05-05T01:11:52.058Z,9.6
2016-05-05T01:12:02.201Z,9.5
2016-05-05T01:12:12.216Z,9.5
2016-05-05T01:12:22.216Z,9.5
2016-05-05T01:12:32.216Z,9.5
2016-05-05T01:12:42.060Z,9.5
2016-05-05T01:12:52.216Z,9.5
2016-05-05T01:13:02.219Z,9.5
2016-05-05T01:13:12.219Z,9.5
2016-05-05T01:13:22.219Z,9.5
2016-05-05T01:13:32.219Z,9.5
2016-05-05T01:13:42.235Z,9.5
2016-05-05T01:13:52.235Z,9.5
2016-05-05T01:14:02.238Z,9.5
2016-05-05T01:14:12.097Z,9.6
2016-05-05T01:14:22.238Z,9.5
2016-05-05T01:14:32.082Z,9.4
2016-05-05T01:14:42.097Z,9.5
2016-05-05T01:14:52.238Z,9.4
2016-05-05T01:15:02.241Z,9.4
2016-05-05T01:15:12.256Z,9.4
2016-05-05T01:15:22.241Z,9.4
2016-05-05T01:15:32.241Z,9.3
2016-05-05T01:15:42.241Z,9.4
2016-05-05T01:15:52.256Z,9.4
2016-05-05T01:16:02.259Z,9.3
2016-05-05T01:16:12.103Z,9.5
2016-05-05T01:16:22.259Z,9.4
2016-05-05T01:16:32.259Z,9.4
2016-05-05T01:16:42.259Z,9.4
2016-05-05T01:16:52.103Z,9.3
2016-05-05T01:17:02.261Z,9.3
2016-05-05T01:17:12.261Z,9.4
2016-05-05T01:17:22.277Z,9.4
2016-05-05T01:17:32.277Z,9.4
2016-05-05T01:17:42.277Z,9.4
2016-05-05T01:17:52.261Z,9.4
2016-05-05T01:18:02.280Z,9.4
2016-05-05T01:18:12.280Z,9.4
2016-05-05T01:18:22.296Z,9.3
2016-05-05T01:18:32.280Z,9.2
2016-05-05T01:18:42.280Z,9.3
2016-05-05T01:18:52.296Z,9.3
2016-05-05T01:19:02.282Z,9.3
2016-05-05T01:19:12.141Z,9.3
2016-05-05T01:19:22.298Z,9.2
2016-05-05T01:19:32.298Z,9.3
2016-05-05T01:19:42.298Z,9.3
2016-05-05T01:19:52.298Z,9.2
2016-05-05T01:20:02.301Z,9.2
2016-05-05T01:20:12.301Z,9.3
2016-05-05T01:20:22.144Z,9.3
2016-05-05T01:20:32.301Z,9.3
2016-05-05T01:20:42.301Z,9.2
2016-05-05T01:20:52.316Z,9.3
2016-05-05T01:21:02.319Z,9.3
2016-05-05T01:21:12.304Z,9.3
2016-05-05T01:21:22.335Z,9.2
2016-05-05T01:21:32.319Z,9.3
2016-05-05T01:21:42.319Z,9.2
2016-05-05T01:21:52.319Z,9.3
2016-05-05T01:22:02.322Z,9.3
2016-05-05T01:22:12.322Z,9.2
2016-05-05T01:22:22.322Z,9.3
2016-05-05T01:22:32.338Z,9.2
2016-05-05T01:22:42.338Z,9.3
2016-05-05T01:22:52.322Z,9.2
2016-05-05T01:23:02.340Z,9.2
2016-05-05T01:23:12.340Z,9.3
2016-05-05T01:23:22.340Z,9.2
2016-05-05T01:23:32.356Z,9.2
2016-05-05T01:23:42.340Z,9.2
2016-05-05T01:23:52.340Z,9.2
2016-05-05T01:24:02.780Z,9.1
2016-05-05T01:24:12.187Z,9.1
2016-05-05T01:24:22.796Z,9.2
2016-05-05T01:24:32.359Z,9.2
2016-05-05T01:24:42.343Z,9.2
2016-05-05T01:24:52.359Z,9.1
2016-05-05T01:25:02.362Z,9.2
2016-05-05T01:25:12.205Z,9.2
2016-05-05T01:25:22.362Z,9.2
2016-05-05T01:25:32.205Z,9.2
2016-05-05T01:25:42.362Z,9.1
2016-05-05T01:25:52.221Z,9.2
2016-05-05T01:26:02.365Z,9.1
2016-05-05T01:26:12.365Z,9.2
2016-05-05T01:26:22.365Z,9.2
2016-05-05T01:26:32.224Z,9.1
2016-05-05T01:26:42.365Z,9.2
2016-05-05T01:26:52.380Z,9.2
2016-05-05T01:27:02.367Z,9.1
2016-05-05T01:27:12.382Z,9.2
2016-05-05T01:27:22.226Z,9.2
2016-05-05T01:27:32.382Z,9.1
2016-05-05T01:27:42.382Z,9.2
2016-05-05T01:27:52.226Z,9.1
2016-05-05T01:28:02.385Z,9.1
2016-05-05T01:28:12.385Z,9.1
2016-05-05T01:28:22.401Z,9.1
2016-05-05T01:28:32.385Z,9.1
2016-05-05T01:28:42.401Z,9.1
2016-05-05T01:28:52.401Z,9.1
2016-05-05T01:29:02.403Z,9
2016-05-05T01:29:12.403Z,9.1
2016-05-05T01:29:22.403Z,9
2016-05-05T01:29:32.247Z,9.1
2016-05-05T01:29:42.262Z,9.1
2016-05-05T01:29:52.247Z,9.1
2016-05-05T01:30:02.421Z,9.1
2016-05-05T01:30:12.406Z,9.1
2016-05-05T01:30:22.421Z,9.1
2016-05-05T01:30:32.406Z,9.1
2016-05-05T01:30:42.421Z,9
2016-05-05T01:30:52.421Z,9.1
2016-05-05T01:31:02.424Z,9
2016-05-05T01:31:12.268Z,9.1
2016-05-05T01:31:22.424Z,9
2016-05-05T01:31:32.268Z,9.1
2016-05-05T01:31:42.424Z,9.1
2016-05-05T01:31:52.440Z,9.1
2016-05-05T01:32:02.443Z,9
2016-05-05T01:32:12.443Z,9
2016-05-05T01:32:22.427Z,9.1
2016-05-05T01:32:32.427Z,9
2016-05-05T01:32:42.443Z,9
2016-05-05T01:32:52.443Z,9.1
2016-05-05T01:33:02.445Z,9.1
2016-05-05T01:33:12.445Z,9.1
2016-05-05T01:33:22.461Z,9
2016-05-05T01:33:32.445Z,9.1
2016-05-05T01:33:42.445Z,9.1
2016-05-05T01:33:52.289Z,9
2016-05-05T01:34:02.464Z,9.1
2016-05-05T01:34:12.448Z,9.1
2016-05-05T01:34:22.307Z,9.1
2016-05-05T01:34:32.448Z,9
2016-05-05T01:34:42.464Z,9.1
2016-05-05T01:34:52.464Z,9
2016-05-05T01:35:02.467Z,9.1
2016-05-05T01:35:12.482Z,9
2016-05-05T01:35:22.467Z,9
2016-05-05T01:35:32.467Z,9.1
2016-05-05T01:35:42.467Z,9
2016-05-05T01:35:52.467Z,9
2016-05-05T01:36:02.329Z,8.9
2016-05-05T01:36:12.329Z,9.1
2016-05-05T01:36:22.485Z,9.1
2016-05-05T01:36:32.485Z,9.1
2016-05-05T01:36:42.329Z,9
2016-05-05T01:36:52.345Z,9.1
2016-05-05T01:37:02.331Z,9
2016-05-05T01:37:12.487Z,9
2016-05-05T01:37:22.487Z,9
2016-05-05T01:37:32.487Z,9
2016-05-05T01:37:42.503Z,9
2016-05-05T01:37:52.503Z,9
2016-05-05T01:38:02.350Z,8.9
2016-05-05T01:38:12.490Z,8.9
2016-05-05T01:38:22.506Z,8.9
2016-05-05T01:38:32.553Z,8.9
2016-05-05T01:38:42.490Z,9
2016-05-05T01:38:52.506Z,9
2016-05-05T01:39:02.352Z,8.9
2016-05-05T01:39:12.524Z,9
2016-05-05T01:39:22.524Z,9
2016-05-05T01:39:32.539Z,9
2016-05-05T01:39:42.774Z,8.9
2016-05-05T01:39:52.524Z,9
2016-05-05T01:40:02.511Z,8.9
2016-05-05T01:40:12.527Z,8.9
2016-05-05T01:40:22.527Z,8.9
2016-05-05T01:40:32.527Z,8.9
2016-05-05T01:40:42.527Z,9
2016-05-05T01:40:52.527Z,8.9
2016-05-05T01:41:02.530Z,8.9
2016-05-05T01:41:12.545Z,8.9
2016-05-05T01:41:22.530Z,8.9
2016-05-05T01:41:32.530Z,9
2016-05-05T01:41:42.530Z,8.9
2016-05-05T01:41:52.561Z,8.9
2016-05-05T01:42:02.548Z,8.9
2016-05-05T01:42:12.533Z,8.9
2016-05-05T01:42:22.548Z,8.9
2016-05-05T01:42:32.548Z,9
2016-05-05T01:42:42.392Z,8.9
2016-05-05T01:42:52.548Z,8.9
2016-05-05T01:43:02.550Z,8.9
2016-05-05T01:43:12.566Z,8.9
2016-05-05T01:43:22.550Z,8.9
2016-05-05T01:43:32.550Z,8.9
2016-05-05T01:43:42.566Z,8.9
2016-05-05T01:43:52.410Z,8.9
2016-05-05T01:44:02.569Z,8.9
2016-05-05T01:44:12.553Z,8.9
2016-05-05T01:44:22.569Z,8.9
2016-05-05T01:44:32.553Z,8.9
2016-05-05T01:44:42.569Z,8.9
2016-05-05T01:44:52.569Z,8.9
2016-05-05T01:45:02.572Z,8.9
2016-05-05T01:45:12.572Z,8.9
2016-05-05T01:45:22.587Z,8.9
2016-05-05T01:45:32.572Z,8.9
2016-05-05T01:45:42.572Z,8.9
2016-05-05T01:45:52.572Z,9
2016-05-05T01:46:02.574Z,8.9
2016-05-05T01:46:12.589Z,9
2016-05-05T01:46:22.589Z,8.9
2016-05-05T01:46:32.589Z,8.9
2016-05-05T01:46:42.589Z,8.9
2016-05-05T01:46:52.589Z,8.8
2016-05-05T01:47:02.591Z,8.9
2016-05-05T01:47:12.591Z,8.9
2016-05-05T01:47:22.591Z,8.9
2016-05-05T01:47:32.591Z,8.9
2016-05-05T01:47:42.607Z,8.9
2016-05-05T01:47:52.591Z,8.8
2016-05-05T01:48:02.594Z,8.9
2016-05-05T01:48:12.610Z,8.9
2016-05-05T01:48:22.610Z,8.9
2016-05-05T01:48:32.610Z,8.9
2016-05-05T01:48:42.626Z,8.9
2016-05-05T01:48:52.610Z,8.8
2016-05-05T01:49:02.472Z,8.9
2016-05-05T01:49:12.613Z,8.8
2016-05-05T01:49:22.613Z,8.8
2016-05-05T01:49:32.613Z,8.9
2016-05-05T01:49:42.613Z,8.9
2016-05-05T01:49:52.613Z,8.9
2016-05-05T01:50:02.632Z,8.8
2016-05-05T01:50:12.632Z,8.9
2016-05-05T01:50:22.632Z,8.9
2016-05-05T01:50:32.632Z,8.9
2016-05-05T01:50:42.475Z,8.9
2016-05-05T01:50:52.632Z,8.9
2016-05-05T01:51:02.478Z,8.8
2016-05-05T01:51:12.635Z,8.8
2016-05-05T01:51:22.635Z,8.8
2016-05-05T01:51:32.635Z,8.8
2016-05-05T01:51:42.635Z,8.8
2016-05-05T01:51:52.494Z,8.8
2016-05-05T01:52:02.673Z,8.8
2016-05-05T01:52:12.517Z,8.8
2016-05-05T01:52:22.673Z,8.8
2016-05-05T01:52:32.673Z,8.8
2016-05-05T01:52:42.673Z,8.8
2016-05-05T01:52:52.517Z,8.8
2016-05-05T01:53:02.718Z,8.8
2016-05-05T01:53:12.718Z,8.8
2016-05-05T01:53:22.718Z,8.8
2016-05-05T01:53:32.718Z,8.8
2016-05-05T01:53:42.718Z,8.7
2016-05-05T01:53:52.734Z,8.7
2016-05-05T01:54:03.467Z,8.7
2016-05-05T01:54:13.139Z,8.7
2016-05-05T01:54:24.077Z,8.7
2016-05-05T01:54:32.624Z,8.8
2016-05-05T01:54:42.796Z,8.8
2016-05-05T01:54:52.780Z,8.7
2016-05-05T01:55:02.841Z,8.7
2016-05-05T01:55:12.825Z,8.7
2016-05-05T01:55:22.841Z,8.7
2016-05-05T01:55:32.841Z,8.7
2016-05-05T01:55:42.841Z,8.7
2016-05-05T01:55:52.841Z,8.7
2016-05-05T01:56:02.870Z,8.7
2016-05-05T01:56:12.886Z,8.7
2016-05-05T01:56:22.886Z,8.8
2016-05-05T01:56:32.886Z,8.8
2016-05-05T01:56:42.886Z,8.8
2016-05-05T01:56:52.901Z,8.7
2016-05-05T01:57:02.777Z,8.8
2016-05-05T01:57:12.933Z,8.7
2016-05-05T01:57:22.933Z,8.7
2016-05-05T01:57:32.918Z,8.7
2016-05-05T01:57:42.918Z,8.7
2016-05-05T01:57:52.933Z,8.8
2016-05-05T01:58:02.795Z,8.8
2016-05-05T01:58:12.951Z,8.7
2016-05-05T01:58:22.951Z,8.7
2016-05-05T01:58:32.951Z,8.7
2016-05-05T01:58:42.951Z,8.7
2016-05-05T01:58:52.951Z,8.7
2016-05-05T01:59:02.969Z,8.7
2016-05-05T01:59:12.813Z,8.6
2016-05-05T01:59:22.969Z,8.6
2016-05-05T01:59:32.985Z,8.7
2016-05-05T01:59:42.969Z,8.6
2016-05-05T01:59:52.985Z,8.6
2016-05-05T02:00:03.003Z,8.7
2016-05-05T02:00:13.003Z,8.6
2016-05-05T02:00:23.003Z,8.6
2016-05-05T02:00:32.847Z,8.7
2016-05-05T02:00:43.003Z,8.7
2016-05-05T02:00:53.003Z,8.7
2016-05-05T02:01:03.022Z,8.6
2016-05-05T02:01:13.037Z,8.6
2016-05-05T02:01:23.037Z,8.6
2016-05-05T02:01:33.022Z,8.7
2016-05-05T02:01:43.022Z,8.6
2016-05-05T02:01:53.037Z,8.6
2016-05-05T02:02:02.894Z,8.6
2016-05-05T02:02:13.050Z,8.6
2016-05-05T02:02:23.050Z,8.6
2016-05-05T02:02:33.050Z,8.5
2016-05-05T02:02:43.050Z,8.6
2016-05-05T02:02:53.050Z,8.6
2016-05-05T02:03:03.059Z,8.6
2016-05-05T02:03:13.059Z,8.6
2016-05-05T02:03:23.059Z,8.5
2016-05-05T02:03:33.059Z,8.5
2016-05-05T02:03:43.075Z,8.5
2016-05-05T02:03:53.059Z,8.5
2016-05-05T02:04:50.395Z,8.5
2016-05-05T02:05:00.348Z,8.5
2016-05-05T02:05:10.358Z,8.5
2016-05-05T02:05:20.358Z,8.5
2016-05-05T02:05:30.358Z,8.5
2016-05-05T02:05:40.358Z,8.6
2016-05-05T02:05:50.358Z,8.5
2016-05-05T02:06:00.358Z,8.5
2016-05-05T02:06:10.366Z,8.5
2016-05-05T02:06:20.366Z,8.5
2016-05-05T02:06:30.366Z,8.5
2016-05-05T02:06:40.366Z,8.5
2016-05-05T02:06:50.381Z,8.5
2016-05-05T02:07:00.381Z,8.5
2016-05-05T02:07:10.481Z,8.5
2016-05-05T02:07:20.387Z,8.5
2016-05-05T02:07:30.387Z,8.6
2016-05-05T02:07:40.387Z,8.5
2016-05-05T02:07:50.387Z,8.5
2016-05-05T02:08:00.403Z,8.5
2016-05-05T02:08:10.267Z,8.6
2016-05-05T02:08:20.392Z,8.5
2016-05-05T02:08:30.408Z,8.5
2016-05-05T02:08:40.408Z,8.5
2016-05-05T02:08:50.408Z,8.5
2016-05-05T02:09:00.299Z,8.5
2016-05-05T02:09:10.757Z,8.5
2016-05-05T02:09:20.272Z,8.5
2016-05-05T02:09:30.288Z,8.5
2016-05-05T02:09:40.429Z,8.5
2016-05-05T02:09:50.413Z,8.5
2016-05-05T02:10:00.413Z,8.5
2016-05-05T02:10:10.417Z,8.5
2016-05-05T02:10:20.276Z,8.5
2016-05-05T02:10:30.433Z,8.4
2016-05-05T02:10:40.433Z,8.5
2016-05-05T02:10:50.433Z,8.5
2016-05-05T02:11:00.433Z,8.4
2016-05-05T02:11:10.452Z,8.5
2016-05-05T02:11:20.437Z,8.4
2016-05-05T02:11:30.437Z,8.5
2016-05-05T02:11:40.437Z,8.5
2016-05-05T02:11:50.296Z,8.5
2016-05-05T02:12:00.296Z,8.4
2016-05-05T02:12:10.442Z,8.4
2016-05-05T02:12:20.442Z,8.5
2016-05-05T02:12:30.301Z,8.4
2016-05-05T02:12:40.457Z,8.4
2016-05-05T02:12:50.301Z,8.4
2016-05-05T02:13:00.457Z,8.3
2016-05-05T02:13:10.305Z,8.3
2016-05-05T02:13:20.477Z,8.4
2016-05-05T02:13:30.461Z,8.4
2016-05-05T02:13:40.461Z,8.4
2016-05-05T02:13:50.461Z,8.4
2016-05-05T02:14:00.461Z,8.3
2016-05-05T02:14:10.463Z,8.4
2016-05-05T02:14:20.463Z,8.4
2016-05-05T02:14:30.479Z,8.4
2016-05-05T02:14:40.526Z,8.4
2016-05-05T02:14:50.463Z,8.4
2016-05-05T02:15:00.463Z,8.3
2016-05-05T02:15:10.328Z,8.3
2016-05-05T02:15:20.499Z,8.4
2016-05-05T02:15:30.499Z,8.4
2016-05-05T02:15:40.499Z,8.4
2016-05-05T02:15:50.484Z,8.3
2016-05-05T02:16:00.484Z,8.4
2016-05-05T02:16:10.486Z,8.3
2016-05-05T02:16:20.501Z,8.3
2016-05-05T02:16:30.486Z,8.4
2016-05-05T02:16:40.548Z,8.4
2016-05-05T02:16:50.501Z,8.4